Terminal Aerodrome Forecast
Issued by NWS Louisville, KY

Home | Current Version | Previous Version | Text Only | Print | Product List | Glossary On
Versions: 1 2 3 4 5 6 7 8 9 10 11 12 13 14 15 16 17 18 19 20 21 22
000
FTUS43 KLMK 172333
TAFSDF
TAF
KSDF 172333Z 1800/1906 16008KT P6SM BKN100
     FM180300 18009KT P6SM VCSH OVC060 WS020/21050KT
     FM180800 19017KT 5SM -SHRA OVC025 WS020/21060KT
     FM181400 20020G28KT 5SM -SHRA OVC012
     FM181900 23024G34KT 4SM SHRA OVC006 PROB30 1819/1823 2SM TSRA
      OVC004CB
     FM190000 30025G36KT 4SM SHRA OVC008=

USA.gov is the U.S. government's official web portal to all federal, state and local government web resources and services.